IBE320 LDDU-LDPL
Flight info
| Callsign | IBE320 |
|---|---|
| Flight time | N/A |
| Altitude | 32000 |
| Route | AMUGO DCT NERRA/N0417F200 L607 ZDA N606 LOS |
| Aircraft | A346/H-SDE2E3FGHIJ3J4J5M1RWXY/LB1D1 |
Departure
| Time | 2026-05-07 09:55 |
|---|---|
| Airport | Dubrovnik Ruđer Bošković Airport (LDDU) |
Arrival
| Time | N/A |
|---|---|
| Airport | Pula Airport (LDPL) |
| Time | Latitude | Longitude | Altitude | Speed | Heading |
|---|---|---|---|---|---|
| 2026-05-07 09:46 | 42.56004 | 18.26509 | 512 ft | 0 kts | 202° |
| 2026-05-07 09:48 | 42.56018 | 18.26517 | 512 ft | 3 kts | 210° |
| 2026-05-07 09:48 | 42.56028 | 18.26527 | 512 ft | 3 kts | 237° |
| 2026-05-07 09:49 | 42.56035 | 18.26551 | 511 ft | 3 kts | 279° |
| 2026-05-07 09:49 | 42.56034 | 18.26559 | 511 ft | 0 kts | 287° |
| 2026-05-07 09:50 | 42.56037 | 18.26550 | 511 ft | 5 kts | 300° |
| 2026-05-07 09:50 | 42.56081 | 18.26463 | 512 ft | 15 kts | 309° |
| 2026-05-07 09:50 | 42.56139 | 18.26345 | 514 ft | 15 kts | 299° |
| 2026-05-07 09:50 | 42.56198 | 18.26197 | 515 ft | 23 kts | 298° |
| 2026-05-07 09:51 | 42.56290 | 18.25964 | 517 ft | 33 kts | 298° |
| 2026-05-07 09:51 | 42.56408 | 18.25666 | 520 ft | 36 kts | 298° |
| 2026-05-07 09:51 | 42.56525 | 18.25375 | 523 ft | 34 kts | 297° |
| 2026-05-07 09:51 | 42.56633 | 18.25099 | 526 ft | 32 kts | 298° |
| 2026-05-07 09:52 | 42.56734 | 18.24843 | 528 ft | 29 kts | 298° |
| 2026-05-07 09:52 | 42.56794 | 18.24709 | 530 ft | 0 kts | 315° |
| 2026-05-07 09:53 | 42.56825 | 18.24681 | 530 ft | 11 kts | 339° |
| 2026-05-07 09:54 | 42.56931 | 18.24762 | 530 ft | 28 kts | 74° |
| 2026-05-07 09:54 | 42.56846 | 18.25042 | 527 ft | 51 kts | 118° |
| 2026-05-07 09:54 | 42.56583 | 18.25702 | 523 ft | 109 kts | 118° |
| 2026-05-07 09:54 | 42.56136 | 18.26822 | 514 ft | 159 kts | 119° |
| 2026-05-07 09:55 | 42.55592 | 18.28165 | 1101 ft | 160 kts | 119° |
| 2026-05-07 09:55 | 42.55054 | 18.29526 | 1783 ft | 167 kts | 119° |
| 2026-05-07 09:55 | 42.54488 | 18.30954 | 2315 ft | 179 kts | 118° |
| 2026-05-07 09:55 | 42.53875 | 18.32497 | 2742 ft | 193 kts | 120° |
| 2026-05-07 09:56 | 42.52921 | 18.33779 | 3220 ft | 199 kts | 160° |
| 2026-05-07 09:56 | 42.51537 | 18.33834 | 3775 ft | 209 kts | 204° |
| 2026-05-07 09:56 | 42.50416 | 18.32574 | 4480 ft | 217 kts | 234° |
| 2026-05-07 09:56 | 42.49359 | 18.31076 | 5274 ft | 223 kts | 208° |
| 2026-05-07 09:57 | 42.47871 | 18.30494 | 6177 ft | 227 kts | 192° |
| 2026-05-07 09:57 | 42.46388 | 18.29670 | 6884 ft | 237 kts | 218° |
| 2026-05-07 09:57 | 42.45348 | 18.27899 | 7606 ft | 249 kts | 249° |
| 2026-05-07 09:57 | 42.45155 | 18.25543 | 8353 ft | 261 kts | 282° |
| 2026-05-07 09:58 | 42.45966 | 18.23304 | 9062 ft | 275 kts | 308° |
| 2026-05-07 09:58 | 42.47189 | 18.21242 | 9747 ft | 285 kts | 308° |
| 2026-05-07 09:58 | 42.48462 | 18.19136 | 10465 ft | 295 kts | 309° |
| 2026-05-07 09:58 | 42.49794 | 18.16935 | 11007 ft | 310 kts | 309° |
| 2026-05-07 09:59 | 42.51193 | 18.14614 | 11493 ft | 326 kts | 308° |
| 2026-05-07 09:59 | 42.52654 | 18.12166 | 11909 ft | 343 kts | 308° |
| 2026-05-07 09:59 | 42.54165 | 18.09619 | 12286 ft | 359 kts | 308° |
| 2026-05-07 09:59 | 42.55759 | 18.06920 | 12609 ft | 375 kts | 308° |
| 2026-05-07 10:00 | 42.57423 | 18.04101 | 12869 ft | 390 kts | 308° |
| 2026-05-07 10:00 | 42.59152 | 18.01172 | 13105 ft | 404 kts | 308° |
| 2026-05-07 10:00 | 42.60924 | 17.98168 | 13505 ft | 410 kts | 308° |
| 2026-05-07 10:00 | 42.62711 | 17.95135 | 14038 ft | 413 kts | 308° |
| 2026-05-07 10:01 | 42.64510 | 17.92083 | 14591 ft | 414 kts | 308° |
| 2026-05-07 10:01 | 42.66313 | 17.89023 | 15103 ft | 417 kts | 308° |
| 2026-05-07 10:01 | 42.68129 | 17.85932 | 15577 ft | 420 kts | 308° |
| 2026-05-07 10:01 | 42.69953 | 17.82818 | 16031 ft | 423 kts | 308° |
| 2026-05-07 10:02 | 42.71789 | 17.79685 | 16473 ft | 425 kts | 308° |
| 2026-05-07 10:02 | 42.73639 | 17.76528 | 16907 ft | 428 kts | 308° |
| 2026-05-07 10:02 | 42.75502 | 17.73351 | 17334 ft | 431 kts | 308° |
| 2026-05-07 10:02 | 42.77374 | 17.70152 | 17749 ft | 433 kts | 308° |
| 2026-05-07 10:03 | 42.79254 | 17.66930 | 18152 ft | 436 kts | 308° |
| 2026-05-07 10:03 | 42.81142 | 17.63693 | 18526 ft | 438 kts | 308° |
| 2026-05-07 10:03 | 42.83042 | 17.60433 | 18893 ft | 441 kts | 308° |
| 2026-05-07 10:03 | 42.84952 | 17.57149 | 19228 ft | 444 kts | 308° |
| 2026-05-07 10:04 | 42.86870 | 17.53840 | 19542 ft | 446 kts | 308° |
| 2026-05-07 10:04 | 42.88774 | 17.50561 | 19845 ft | 448 kts | 308° |
| 2026-05-07 10:04 | 42.90710 | 17.47226 | 20138 ft | 450 kts | 308° |
| 2026-05-07 10:04 | 42.92653 | 17.43875 | 20420 ft | 451 kts | 308° |
| 2026-05-07 10:05 | 42.94602 | 17.40512 | 20676 ft | 453 kts | 308° |
| 2026-05-07 10:05 | 42.96561 | 17.37129 | 20895 ft | 455 kts | 308° |
| 2026-05-07 10:05 | 42.98523 | 17.33736 | 21102 ft | 456 kts | 308° |
| 2026-05-07 10:05 | 43.00491 | 17.30326 | 21322 ft | 457 kts | 308° |
| 2026-05-07 10:06 | 43.02458 | 17.26908 | 21535 ft | 458 kts | 308° |
| 2026-05-07 10:06 | 43.04428 | 17.23483 | 21724 ft | 459 kts | 308° |
| 2026-05-07 10:06 | 43.06400 | 17.20051 | 21891 ft | 460 kts | 308° |
| 2026-05-07 10:06 | 43.08376 | 17.16604 | 22042 ft | 461 kts | 308° |
| 2026-05-07 10:07 | 43.10357 | 17.13146 | 22183 ft | 462 kts | 308° |
| 2026-05-07 10:07 | 43.12341 | 17.09681 | 22315 ft | 463 kts | 308° |
| 2026-05-07 10:07 | 43.14257 | 17.06134 | 22445 ft | 463 kts | 303° |
| 2026-05-07 10:07 | 43.16011 | 17.02428 | 22567 ft | 464 kts | 303° |
| 2026-05-07 10:08 | 43.16582 | 17.01223 | 22607 ft | 464 kts | 303° |